Time;durP1;ratioP1;P1;durP2;ratioP2;P2;SDS_P1;SDS_P2;PMS_P1;PMS_P2;Temp;Humidity;BMP_temperature;BMP_pressure;BME280_temperature;BME280_humidity;BME280_pressure;Samples;Min_cycle;Max_cycle;Signal;HPM_P1;HPM_P2
2021/07/29 00:01:48;;;;;;;7.40;3.05;;;;;;;;;;5133613;27;20043;-80
2021/07/29 00:04:14;;;;;;;8.45;3.08;;;;;;;;;;5131245;27;20069;-76
2021/07/29 00:06:40;;;;;;;7.22;2.78;;;;;;;;;;5132738;27;20055;-79
2021/07/29 00:09:06;;;;;;;6.45;3.25;;;;;;;;;;5132746;27;20397;-80
2021/07/29 00:11:32;;;;;;;9.02;3.28;;;;;;;;;;5132538;27;20632;-81
2021/07/29 00:14:01;;;;;;;4.93;2.65;;;;;;;;;;5132240;27;20039;-80
2021/07/29 00:16:28;;;;;;;6.10;2.83;;;;;;;;;;5131565;27;20122;-80
2021/07/29 00:19:05;;;;;;;6.97;2.92;;;;;;;;;;5131702;27;20039;-80
2021/07/29 00:21:32;;;;;;;8.02;3.10;;;;;;;;;;5128903;27;20089;-81
2021/07/29 00:23:59;;;;;;;6.85;3.42;;;;;;;;;;5132008;27;20039;-80
2021/07/29 00:26:25;;;;;;;7.25;3.45;;;;;;;;;;5131035;27;20096;-76
2021/07/29 00:28:51;;;;;;;7.35;3.30;;;;;;;;;;5133217;27;20130;-79
2021/07/29 00:31:17;;;;;;;6.68;3.40;;;;;;;;;;5131140;27;20039;-76
2021/07/29 00:33:44;;;;;;;7.70;3.40;;;;;;;;;;5130379;27;20076;-78
2021/07/29 00:36:20;;;;;;;7.85;3.13;;;;;;;;;;5132792;27;20046;-79
2021/07/29 00:38:46;;;;;;;9.18;4.32;;;;;;;;;;5130054;27;20035;-79
2021/07/29 00:41:14;;;;;;;7.30;3.10;;;;;;;;;;5131986;27;20409;-80
2021/07/29 00:43:40;;;;;;;9.63;3.97;;;;;;;;;;5130070;27;20156;-79
2021/07/29 00:46:06;;;;;;;4.82;3.47;;;;;;;;;;5133119;27;20047;-80
2021/07/29 00:48:33;;;;;;;13.90;3.63;;;;;;;;;;5131645;27;20457;-81
2021/07/29 00:50:59;;;;;;;6.88;3.90;;;;;;;;;;5132157;27;20027;-79
2021/07/29 00:53:25;;;;;;;14.95;5.07;;;;;;;;;;5130741;27;20051;-81
2021/07/29 00:55:51;;;;;;;14.07;5.95;;;;;;;;;;5131646;27;20043;-83
2021/07/29 00:58:18;;;;;;;13.13;5.63;;;;;;;;;;5131543;27;20387;-78
2021/07/29 01:00:44;;;;;;;10.63;5.65;;;;;;;;;;5096165;27;20436;-80
2021/07/29 01:03:10;;;;;;;9.90;5.50;;;;;;;;;;5129501;27;20043;-80
2021/07/29 01:05:36;;;;;;;14.38;5.07;;;;;;;;;;5130527;27;20118;-80
2021/07/29 01:08:03;;;;;;;9.13;5.07;;;;;;;;;;5133179;27;20118;-80
2021/07/29 01:10:29;;;;;;;14.32;6.03;;;;;;;;;;5112289;27;20129;-80
2021/07/29 01:12:55;;;;;;;9.70;5.38;;;;;;;;;;5132059;27;20054;-79
2021/07/29 01:15:22;;;;;;;10.77;4.85;;;;;;;;;;5129033;27;20129;-77
2021/07/29 01:17:52;;;;;;;10.40;5.15;;;;;;;;;;5130391;27;20043;-81
2021/07/29 01:20:19;;;;;;;7.93;4.80;;;;;;;;;;5132026;27;20066;-81
2021/07/29 01:22:45;;;;;;;10.15;4.20;;;;;;;;;;5112773;27;20080;-80
2021/07/29 01:25:11;;;;;;;11.60;4.43;;;;;;;;;;5129200;27;20039;-81
2021/07/29 01:27:38;;;;;;;11.52;3.30;;;;;;;;;;5130172;27;20474;-81
2021/07/29 01:30:04;;;;;;;9.88;3.53;;;;;;;;;;5131890;27;20375;-81
2021/07/29 01:32:30;;;;;;;7.53;3.25;;;;;;;;;;5129374;27;20043;-81
2021/07/29 01:34:57;;;;;;;6.05;3.30;;;;;;;;;;5131822;27;20041;-80
2021/07/29 01:37:24;;;;;;;7.38;2.85;;;;;;;;;;5130680;27;20530;-77
2021/07/29 01:39:51;;;;;;;8.88;2.97;;;;;;;;;;5131519;27;20051;-80
2021/07/29 01:42:17;;;;;;;8.43;3.25;;;;;;;;;;5130707;27;20039;-80
2021/07/29 01:44:43;;;;;;;7.82;3.03;;;;;;;;;;5128918;27;20633;-79
2021/07/29 01:47:09;;;;;;;5.63;2.67;;;;;;;;;;5131275;27;20041;-80
2021/07/29 01:49:36;;;;;;;8.32;2.85;;;;;;;;;;5130129;27;20397;-80
2021/07/29 01:52:02;;;;;;;6.60;2.85;;;;;;;;;;5130686;27;20031;-80
2021/07/29 01:54:28;;;;;;;8.43;3.20;;;;;;;;;;5131067;27;20064;-76
2021/07/29 01:56:54;;;;;;;7.57;3.13;;;;;;;;;;5128471;27;20066;-79
2021/07/29 01:59:20;;;;;;;5.85;3.03;;;;;;;;;;5131005;27;20514;-80
2021/07/29 02:01:46;;;;;;;11.55;3.60;;;;;;;;;;5130391;27;20092;-79
2021/07/29 02:04:12;;;;;;;8.98;3.90;;;;;;;;;;5131043;27;20087;-80
2021/07/29 02:06:40;;;;;;;15.15;4.65;;;;;;;;;;5111418;27;20069;-80
2021/07/29 02:09:06;;;;;;;11.85;4.07;;;;;;;;;;5130817;27;20132;-80
2021/07/29 02:11:34;;;;;;;12.18;4.47;;;;;;;;;;5130121;27;20031;-81
2021/07/29 02:14:01;;;;;;;12.35;5.10;;;;;;;;;;5131275;27;20071;-80
2021/07/29 02:16:28;;;;;;;15.93;5.57;;;;;;;;;;5130064;27;20127;-78
2021/07/29 02:18:54;;;;;;;13.05;5.30;;;;;;;;;;5129021;27;20038;-80
2021/07/29 02:21:20;;;;;;;13.95;5.22;;;;;;;;;;5130996;27;20039;-80
2021/07/29 02:23:46;;;;;;;11.27;5.60;;;;;;;;;;5111378;27;20155;-79
2021/07/29 02:26:12;;;;;;;13.18;5.18;;;;;;;;;;5129732;27;20397;-80
2021/07/29 02:28:38;;;;;;;13.23;4.55;;;;;;;;;;5111547;28;20043;-80
2021/07/29 02:31:05;;;;;;;10.65;4.30;;;;;;;;;;5129665;27;20115;-80
2021/07/29 02:33:31;;;;;;;8.32;3.65;;;;;;;;;;5128722;27;20163;-77
2021/07/29 02:35:57;;;;;;;9.35;3.50;;;;;;;;;;5130586;28;20051;-79
2021/07/29 02:38:24;;;;;;;8.85;2.75;;;;;;;;;;5128998;28;20043;-80
2021/07/29 02:40:50;;;;;;;4.85;1.50;;;;;;;;;;5145945;27;20039;-80
2021/07/29 02:43:16;;;;;;;3.63;1.38;;;;;;;;;;5126921;28;20134;-80
2021/07/29 02:45:42;;;;;;;4.03;1.27;;;;;;;;;;5129148;28;20043;-80
2021/07/29 02:48:08;;;;;;;2.58;1.30;;;;;;;;;;5130476;28;20036;-80
2021/07/29 02:50:35;;;;;;;2.20;1.00;;;;;;;;;;5124560;28;20062;-76
2021/07/29 02:53:01;;;;;;;4.18;1.10;;;;;;;;;;5117003;28;20039;-80
2021/07/29 02:55:27;;;;;;;3.38;1.30;;;;;;;;;;5124860;27;20039;-80
2021/07/29 02:57:54;;;;;;;3.15;1.00;;;;;;;;;;5133353;27;20043;-80
2021/07/29 03:00:20;;;;;;;3.20;1.02;;;;;;;;;;5132471;27;20115;-79
2021/07/29 03:02:46;;;;;;;2.50;1.05;;;;;;;;;;5133803;27;20031;-80
2021/07/29 03:05:12;;;;;;;3.50;1.17;;;;;;;;;;5115979;27;20066;-79
2021/07/29 03:07:38;;;;;;;2.08;1.13;;;;;;;;;;5131562;27;20156;-78
2021/07/29 03:10:04;;;;;;;4.25;1.00;;;;;;;;;;5134281;27;20039;-80
2021/07/29 03:12:31;;;;;;;4.10;1.20;;;;;;;;;;5133980;27;20035;-80
2021/07/29 03:14:57;;;;;;;2.35;1.00;;;;;;;;;;5132753;27;20113;-79
2021/07/29 03:17:23;;;;;;;2.90;0.80;;;;;;;;;;5130296;27;20118;-79
2021/07/29 03:19:50;;;;;;;4.13;1.08;;;;;;;;;;5132639;27;20043;-80
2021/07/29 03:22:18;;;;;;;5.05;1.13;;;;;;;;;;5116405;27;20042;-80
2021/07/29 03:24:44;;;;;;;1.55;0.70;;;;;;;;;;5133195;27;20035;-79
2021/07/29 03:27:10;;;;;;;2.28;0.85;;;;;;;;;;5133137;27;20118;-79
2021/07/29 03:29:36;;;;;;;4.03;1.30;;;;;;;;;;5134069;27;20039;-77
2021/07/29 03:32:02;;;;;;;4.45;1.30;;;;;;;;;;5134210;27;20046;-80
2021/07/29 03:34:29;;;;;;;2.10;1.00;;;;;;;;;;5132719;27;20047;-77
2021/07/29 03:36:55;;;;;;;2.83;1.30;;;;;;;;;;5130636;27;20043;-79
2021/07/29 03:39:21;;;;;;;4.65;1.40;;;;;;;;;;5114794;27;20053;-79
2021/07/29 03:41:48;;;;;;;4.35;1.17;;;;;;;;;;5132801;27;20078;-80
2021/07/29 03:44:14;;;;;;;2.28;1.15;;;;;;;;;;5133360;27;20047;-79
2021/07/29 03:46:40;;;;;;;3.05;1.45;;;;;;;;;;5132017;27;20043;-76
2021/07/29 03:49:06;;;;;;;3.22;1.30;;;;;;;;;;5132725;27;20377;-80
2021/07/29 03:51:32;;;;;;;5.78;1.40;;;;;;;;;;5133777;27;20496;-80
2021/07/29 03:53:59;;;;;;;3.22;1.33;;;;;;;;;;5115373;27;20035;-80
2021/07/29 03:56:25;;;;;;;5.22;1.55;;;;;;;;;;5112817;27;20068;-80
2021/07/29 03:58:51;;;;;;;3.45;1.58;;;;;;;;;;5131929;27;20546;-79
2021/07/29 04:01:18;;;;;;;5.15;1.95;;;;;;;;;;5132370;27;20530;-78
2021/07/29 04:03:46;;;;;;;7.88;2.10;;;;;;;;;;5131813;27;20047;-76
2021/07/29 04:06:16;;;;;;;8.85;2.42;;;;;;;;;;5132787;27;20035;-80
2021/07/29 04:08:42;;;;;;;6.55;2.15;;;;;;;;;;5129245;27;20038;-76
2021/07/29 04:11:08;;;;;;;4.47;1.92;;;;;;;;;;5132959;27;20046;-80
2021/07/29 04:13:34;;;;;;;5.03;2.35;;;;;;;;;;5132338;27;20032;-80
2021/07/29 04:16:01;;;;;;;7.60;2.85;;;;;;;;;;5132935;27;20039;-80
2021/07/29 04:18:31;;;;;;;7.00;2.30;;;;;;;;;;5132389;27;20039;-78
2021/07/29 04:20:58;;;;;;;6.55;2.50;;;;;;;;;;5132369;27;20070;-79
2021/07/29 04:23:24;;;;;;;7.75;2.83;;;;;;;;;;5133633;27;20035;-79
2021/07/29 04:25:50;;;;;;;8.10;2.45;;;;;;;;;;5132369;27;20126;-79
2021/07/29 04:28:16;;;;;;;6.03;2.20;;;;;;;;;;5132338;27;20550;-79
2021/07/29 04:30:43;;;;;;;8.18;2.72;;;;;;;;;;5132395;27;20139;-79
2021/07/29 04:33:09;;;;;;;10.63;2.67;;;;;;;;;;5130892;27;20437;-80
2021/07/29 04:35:38;;;;;;;8.88;2.90;;;;;;;;;;5131419;27;20088;-80
2021/07/29 04:38:05;;;;;;;6.13;2.58;;;;;;;;;;5130986;27;20806;-80
2021/07/29 04:40:31;;;;;;;13.02;3.33;;;;;;;;;;5131391;27;20542;-80
2021/07/29 04:42:57;;;;;;;8.20;2.83;;;;;;;;;;5131711;27;20054;-78
2021/07/29 04:45:23;;;;;;;7.20;2.60;;;;;;;;;;5120404;27;20043;-77
2021/07/29 04:47:51;;;;;;;8.05;3.35;;;;;;;;;;5128151;27;20476;-79
2021/07/29 04:50:17;;;;;;;12.25;3.38;;;;;;;;;;5138563;27;20023;-82
2021/07/29 04:52:44;;;;;;;6.22;3.10;;;;;;;;;;5130247;27;20046;-82
2021/07/29 04:55:10;;;;;;;9.73;3.28;;;;;;;;;;5129121;27;20051;-83
2021/07/29 04:57:36;;;;;;;14.45;3.70;;;;;;;;;;5133746;27;20043;-83
2021/07/29 05:00:03;;;;;;;10.30;3.40;;;;;;;;;;5129712;27;20541;-81
2021/07/29 05:02:29;;;;;;;14.40;3.33;;;;;;;;;;5135472;27;20042;-82
2021/07/29 05:04:55;;;;;;;15.40;3.25;;;;;;;;;;5129856;27;20063;-81
2021/07/29 05:07:21;;;;;;;9.60;3.75;;;;;;;;;;5132633;27;20100;-80
2021/07/29 05:09:48;;;;;;;13.23;4.20;;;;;;;;;;5135921;27;20099;-82
2021/07/29 05:12:14;;;;;;;10.05;4.10;;;;;;;;;;5131544;27;20065;-78
2021/07/29 05:14:41;;;;;;;13.07;3.67;;;;;;;;;;5132393;27;20043;-81
2021/07/29 05:17:22;;;;;;;9.25;2.97;;;;;;;;;;5115619;27;20061;-81
2021/07/29 05:19:48;;;;;;;12.80;3.60;;;;;;;;;;5111168;27;20075;-81
2021/07/29 05:22:15;;;;;;;14.15;3.47;;;;;;;;;;5135014;27;20123;-81
2021/07/29 05:24:41;;;;;;;18.08;3.40;;;;;;;;;;5132452;27;20039;-81
2021/07/29 05:27:07;;;;;;;9.55;2.90;;;;;;;;;;5130189;27;20035;-79
2021/07/29 05:29:36;;;;;;;10.52;2.30;;;;;;;;;;5131567;27;20047;-75
2021/07/29 05:32:02;;;;;;;10.98;2.80;;;;;;;;;;5131221;27;20039;-80
2021/07/29 05:34:28;;;;;;;9.88;2.33;;;;;;;;;;5127044;27;20114;-79
2021/07/29 05:36:55;;;;;;;13.05;2.03;;;;;;;;;;5128823;27;20054;-77
2021/07/29 05:39:23;;;;;;;5.72;2.20;;;;;;;;;;5114652;27;20148;-80
2021/07/29 05:41:49;;;;;;;11.70;2.50;;;;;;;;;;5131669;27;20035;-80
2021/07/29 05:44:15;;;;;;;7.65;1.98;;;;;;;;;;5114130;27;20492;-81
2021/07/29 05:46:41;;;;;;;10.55;2.45;;;;;;;;;;5132130;27;20072;-79
2021/07/29 05:49:07;;;;;;;7.90;2.20;;;;;;;;;;5132292;27;20539;-80
2021/07/29 05:51:33;;;;;;;10.77;2.15;;;;;;;;;;5132061;27;20039;-80
2021/07/29 05:53:59;;;;;;;9.77;2.20;;;;;;;;;;5128857;27;20039;-79
2021/07/29 05:56:28;;;;;;;14.40;2.33;;;;;;;;;;5140088;27;20084;-78
2021/07/29 05:58:54;;;;;;;13.60;2.00;;;;;;;;;;5130070;27;20092;-81
2021/07/29 06:01:22;;;;;;;5.65;1.98;;;;;;;;;;5123806;27;20070;-82
2021/07/29 06:03:48;;;;;;;11.57;2.22;;;;;;;;;;5126011;27;20080;-83
2021/07/29 06:06:14;;;;;;;8.25;2.25;;;;;;;;;;5124458;27;20043;-82
2021/07/29 06:08:40;;;;;;;12.02;2.13;;;;;;;;;;5131257;27;20035;-83
2021/07/29 06:11:07;;;;;;;10.57;2.20;;;;;;;;;;5121685;27;20488;-82
2021/07/29 06:13:33;;;;;;;8.13;2.17;;;;;;;;;;5124653;27;20072;-80
2021/07/29 06:16:03;;;;;;;6.70;2.15;;;;;;;;;;5122974;27;20408;-77
2021/07/29 06:18:29;;;;;;;12.70;2.22;;;;;;;;;;5114805;27;20043;-78
2021/07/29 06:20:56;;;;;;;9.90;2.10;;;;;;;;;;5132613;27;20466;-81
2021/07/29 06:23:23;;;;;;;13.48;1.92;;;;;;;;;;5127933;27;20385;-81
2021/07/29 06:25:49;;;;;;;7.10;1.90;;;;;;;;;;5125417;27;20043;-81
2021/07/29 06:28:16;;;;;;;8.70;2.03;;;;;;;;;;5124411;27;20163;-79
2021/07/29 06:30:43;;;;;;;7.80;1.88;;;;;;;;;;5142049;27;20478;-82
2021/07/29 06:33:09;;;;;;;9.38;1.70;;;;;;;;;;5110684;27;20043;-78
2021/07/29 06:35:35;;;;;;;8.43;2.08;;;;;;;;;;5129235;27;20148;-80
2021/07/29 06:38:01;;;;;;;10.57;2.08;;;;;;;;;;5120599;28;20046;-78
2021/07/29 06:40:28;;;;;;;7.78;2.92;;;;;;;;;;5126137;28;20414;-84
2021/07/29 06:42:54;;;;;;;8.25;2.10;;;;;;;;;;5127165;28;20549;-82
2021/07/29 06:45:21;;;;;;;10.30;1.92;;;;;;;;;;5128349;27;20538;-82
2021/07/29 06:47:48;;;;;;;7.97;1.85;;;;;;;;;;5126145;28;20154;-81
2021/07/29 06:50:14;;;;;;;10.13;2.17;;;;;;;;;;5110607;28;20039;-81
2021/07/29 06:52:40;;;;;;;9.63;2.55;;;;;;;;;;5125545;28;20042;-86
2021/07/29 06:55:06;;;;;;;5.35;1.63;;;;;;;;;;5124533;28;20070;-79
2021/07/29 06:57:32;;;;;;;9.35;1.98;;;;;;;;;;5122155;27;20039;-83
2021/07/29 06:59:58;;;;;;;6.75;1.80;;;;;;;;;;5126875;28;20035;-86
2021/07/29 07:02:25;;;;;;;6.47;1.80;;;;;;;;;;5126814;28;20038;-83
2021/07/29 07:04:51;;;;;;;9.70;1.90;;;;;;;;;;5127561;27;20047;-84
2021/07/29 07:07:17;;;;;;;7.72;2.20;;;;;;;;;;5119944;28;20042;-85
2021/07/29 07:09:45;;;;;;;8.25;1.55;;;;;;;;;;5122740;28;20104;-85
2021/07/29 07:12:11;;;;;;;8.73;2.15;;;;;;;;;;5109733;28;20504;-85
2021/07/29 07:14:37;;;;;;;11.88;2.10;;;;;;;;;;5130034;28;20436;-86
2021/07/29 07:17:04;;;;;;;12.82;2.20;;;;;;;;;;5128755;28;20520;-82
2021/07/29 07:19:30;;;;;;;10.27;1.77;;;;;;;;;;5110466;27;20059;-80
2021/07/29 07:21:56;;;;;;;7.88;1.92;;;;;;;;;;5140282;27;20035;-83
2021/07/29 07:24:23;;;;;;;;;;;;;;;;;;5123973;27;20493;-85
2021/07/29 07:26:49;;;;;;;;;;;;;;;;;;5120065;27;19920;-84
2021/07/29 07:29:15;;;;;;;;;;;;;;;;;;5150057;27;19923;-83
2021/07/29 07:31:41;;;;;;;;;;;;;;;;;;5131361;27;20366;-80
2021/07/29 07:34:07;;;;;;;;;;;;;;;;;;5129980;28;19920;-78
2021/07/29 07:36:33;;;;;;;;;;;;;;;;;;5155785;27;19923;-82
2021/07/29 07:38:59;;;;;;;;;;;;;;;;;;5132761;28;20302;-81
2021/07/29 07:41:26;;;;;;;;;;;;;;;;;;5165451;27;19919;-81
2021/07/29 07:43:52;;;;;;;;;;;;;;;;;;5133934;27;19948;-80
2021/07/29 07:46:18;;;;;;;;;;;;;;;;;;5130839;27;19922;-85
2021/07/29 07:48:45;;;;;;;;;;;;;;;;;;5132725;27;19923;-79
2021/07/29 07:51:11;;;;;;;;;;;;;;;;;;5139071;27;20351;-82
2021/07/29 07:53:37;;;;;;;;;;;;;;;;;;5139772;27;20388;-80
2021/07/29 07:56:03;;;;;;;;;;;;;;;;;;5159423;27;19958;-81
2021/07/29 07:58:29;;;;;;;;;;;;;;;;;;5158673;27;20760;-80
2021/07/29 08:00:55;;;;;;;;;;;;;;;;;;5126560;27;20385;-77
2021/07/29 08:03:21;;;;;;;;;;;;;;;;;;5152701;27;19924;-78
2021/07/29 08:05:47;;;;;;;;;;;;;;;;;;5127367;27;19924;-80
2021/07/29 08:08:13;;;;;;;;;;;;;;;;;;5127719;27;19965;-81
2021/07/29 08:10:40;;;;;;;;;;;;;;;;;;5128099;27;19919;-81
2021/07/29 08:13:06;;;;;;;;;;;;;;;;;;5152518;27;19943;-81
2021/07/29 08:15:32;;;;;;;;;;;;;;;;;;5117794;27;20018;-82
2021/07/29 08:17:58;;;;;;;;;;;;;;;;;;5128412;27;19927;-81
2021/07/29 08:20:25;;;;;;;6.95;1.98;;;;;;;;;;5121637;27;19936;-80
2021/07/29 08:22:52;;;;;;;9.20;1.88;;;;;;;;;;5108219;27;20093;-80
2021/07/29 08:25:20;;;;;;;7.72;2.30;;;;;;;;;;5124757;27;20039;-80
2021/07/29 08:27:50;;;;;;;7.72;2.35;;;;;;;;;;5125643;27;20088;-80
2021/07/29 08:30:16;;;;;;;;;;;;;;;;;;5127836;27;20043;-80
2021/07/29 08:32:42;;;;;;;;;;;;;;;;;;5128185;27;19990;-79
2021/07/29 08:35:08;;;;;;;9.82;2.28;;;;;;;;;;5115798;27;19927;-79
2021/07/29 08:37:34;;;;;;;4.20;1.80;;;;;;;;;;5118181;27;20047;-78
2021/07/29 08:40:00;;;;;;;7.28;2.17;;;;;;;;;;5119624;27;20059;-79
2021/07/29 08:42:27;;;;;;;7.70;1.80;;;;;;;;;;5124210;27;20030;-78
2021/07/29 08:44:54;;;;;;;7.65;1.80;;;;;;;;;;5124434;27;20086;-80
2021/07/29 08:47:24;;;;;;;7.90;1.90;;;;;;;;;;5114086;27;20474;-77
2021/07/29 08:49:52;;;;;;;9.85;2.40;;;;;;;;;;5118337;27;20047;-78
2021/07/29 08:52:18;;;;;;;8.85;2.10;;;;;;;;;;5118189;27;20031;-77
2021/07/29 08:54:46;;;;;;;11.07;2.80;;;;;;;;;;5104671;27;20039;-78
2021/07/29 08:57:14;;;;;;;9.77;2.97;;;;;;;;;;5106231;27;21261;-82
2021/07/29 08:59:40;;;;;;;11.50;2.58;;;;;;;;;;5109918;27;20035;-78
2021/07/29 09:02:22;;;;;;;6.25;1.83;;;;;;;;;;5129057;27;20071;-79
2021/07/29 09:05:06;;;;;;;7.05;2.08;;;;;;;;;;5126787;27;20123;-79
2021/07/29 09:07:33;;;;;;;7.60;2.38;;;;;;;;;;5119372;27;20461;-80
2021/07/29 09:09:59;;;;;;;8.82;2.38;;;;;;;;;;5129067;27;20466;-78
2021/07/29 09:12:25;;;;;;;7.78;2.20;;;;;;;;;;5117850;27;20046;-78
2021/07/29 09:14:52;;;;;;;9.02;2.58;;;;;;;;;;5125356;27;20062;-80
2021/07/29 09:17:19;;;;;;;7.72;2.13;;;;;;;;;;5125916;27;20513;-76
2021/07/29 09:19:47;;;;;;;13.35;2.65;;;;;;;;;;5127304;27;20047;-81
2021/07/29 09:22:19;;;;;;;5.63;1.95;;;;;;;;;;5126221;27;20032;-84
2021/07/29 09:25:11;;;;;;;12.30;2.53;;;;;;;;;;5123848;27;20046;-77
2021/07/29 09:27:38;;;;;;;14.10;2.60;;;;;;;;;;5145338;27;20112;-79
2021/07/29 09:30:23;;;;;;;6.40;2.25;;;;;;;;;;5126978;27;20497;-80
2021/07/29 09:32:53;;;;;;;8.68;2.08;;;;;;;;;;5127739;27;20150;-79
2021/07/29 09:35:31;;;;;;;9.80;2.75;;;;;;;;;;5128273;27;20039;-80
2021/07/29 09:37:59;;;;;;;6.90;2.50;;;;;;;;;;5125745;27;20054;-80
2021/07/29 09:40:25;;;;;;;9.52;2.25;;;;;;;;;;5119112;27;20058;-79
2021/07/29 09:43:12;;;;;;;8.85;2.00;;;;;;;;;;5123352;27;20535;-82
2021/07/29 09:45:39;;;;;;;7.68;2.05;;;;;;;;;;5128218;27;20494;-80
2021/07/29 09:48:06;;;;;;;11.57;2.00;;;;;;;;;;5123252;27;20406;-82
2021/07/29 09:50:36;;;;;;;9.43;2.35;;;;;;;;;;5115544;27;20047;-83
2021/07/29 09:53:02;;;;;;;6.05;1.90;;;;;;;;;;5130229;27;20043;-81
2021/07/29 09:55:32;;;;;;;6.30;1.77;;;;;;;;;;5128228;27;20051;-82
2021/07/29 09:58:01;;;;;;;11.50;1.92;;;;;;;;;;5121347;27;20169;-81
2021/07/29 10:00:28;;;;;;;7.15;2.17;;;;;;;;;;5120672;27;20043;-82
2021/07/29 10:02:54;;;;;;;10.63;1.50;;;;;;;;;;5115500;27;20047;-80
2021/07/29 10:05:23;;;;;;;5.28;1.20;;;;;;;;;;5122223;27;20110;-79
2021/07/29 10:07:51;;;;;;;6.88;1.30;;;;;;;;;;5126898;27;20043;-80
2021/07/29 10:10:21;;;;;;;3.70;0.95;;;;;;;;;;5123353;27;20039;-80
2021/07/29 10:12:49;;;;;;;5.97;1.50;;;;;;;;;;5122562;27;20375;-81
2021/07/29 10:15:34;;;;;;;4.10;1.38;;;;;;;;;;5126211;27;20286;-80
2021/07/29 10:18:03;;;;;;;7.47;1.48;;;;;;;;;;5119021;27;20048;-81
2021/07/29 10:20:32;;;;;;;7.97;1.58;;;;;;;;;;5151373;27;20062;-81
2021/07/29 10:23:14;;;;;;;12.35;1.52;;;;;;;;;;5127293;27;20123;-80
2021/07/29 10:25:54;;;;;;;4.70;1.30;;;;;;;;;;5122346;27;20100;-81
2021/07/29 10:28:22;;;;;;;8.57;1.25;;;;;;;;;;5120346;27;20122;-80
2021/07/29 10:31:02;;;;;;;5.53;1.23;;;;;;;;;;5137212;27;20090;-81
2021/07/29 10:33:29;;;;;;;5.95;1.52;;;;;;;;;;5120028;27;20039;-78
2021/07/29 10:35:56;;;;;;;6.72;1.13;;;;;;;;;;5123777;27;20048;-80
2021/07/29 10:38:38;;;;;;;7.10;1.25;;;;;;;;;;5118680;28;20042;-82
2021/07/29 10:41:07;;;;;;;4.80;1.02;;;;;;;;;;5113430;28;20462;-81
2021/07/29 10:43:34;;;;;;;4.93;1.45;;;;;;;;;;5126136;28;20047;-79
2021/07/29 10:46:01;;;;;;;4.95;1.20;;;;;;;;;;5124726;28;20372;-81
2021/07/29 10:48:40;;;;;;;3.95;1.40;;;;;;;;;;5126088;28;20046;-81
2021/07/29 10:51:23;;;;;;;6.53;1.20;;;;;;;;;;5124773;28;20040;-81
2021/07/29 10:53:50;;;;;;;3.38;1.38;;;;;;;;;;5118943;28;20043;-81
2021/07/29 10:56:20;;;;;;;3.83;1.00;;;;;;;;;;5123859;28;20052;-81
2021/07/29 10:58:47;;;;;;;8.00;1.33;;;;;;;;;;5131899;28;20035;-80
2021/07/29 11:01:14;;;;;;;4.88;1.00;;;;;;;;;;5132502;28;20043;-81
2021/07/29 11:03:46;;;;;;;5.18;1.40;;;;;;;;;;5131709;28;20040;-80
2021/07/29 11:06:14;;;;;;;6.80;1.27;;;;;;;;;;5132837;28;20051;-81
2021/07/29 11:08:43;;;;;;;9.20;1.42;;;;;;;;;;5128615;28;20375;-81
2021/07/29 11:11:09;;;;;;;4.22;1.20;;;;;;;;;;5119291;28;20047;-81
2021/07/29 11:13:35;;;;;;;9.38;2.83;;;;;;;;;;5114239;28;20494;-80
2021/07/29 11:16:02;;;;;;;8.40;1.77;;;;;;;;;;5115491;28;20054;-81
2021/07/29 11:18:28;;;;;;;5.90;1.38;;;;;;;;;;5162442;27;20055;-80
2021/07/29 11:20:54;;;;;;;5.47;1.20;;;;;;;;;;5136067;27;20605;-81
2021/07/29 11:23:33;;;;;;;5.22;1.25;;;;;;;;;;5136295;27;20050;-81
2021/07/29 11:26:01;;;;;;;4.53;1.35;;;;;;;;;;5135296;27;20054;-81
2021/07/29 11:28:27;;;;;;;7.68;1.85;;;;;;;;;;5129550;27;20110;-80
2021/07/29 11:30:53;;;;;;;4.05;1.23;;;;;;;;;;5128184;27;20050;-81
2021/07/29 11:33:23;;;;;;;3.33;1.30;;;;;;;;;;5148145;27;20044;-81
2021/07/29 11:35:50;;;;;;;6.80;1.83;;;;;;;;;;5151111;27;20509;-81
2021/07/29 11:38:20;;;;;;;8.45;1.52;;;;;;;;;;5134608;27;20126;-81
2021/07/29 11:40:46;;;;;;;9.50;1.67;;;;;;;;;;5135086;27;20406;-80
2021/07/29 11:43:22;;;;;;;5.95;1.27;;;;;;;;;;5136124;27;20047;-81
2021/07/29 11:45:50;;;;;;;4.15;1.35;;;;;;;;;;5134087;27;20397;-81
2021/07/29 11:48:22;;;;;;;3.85;1.35;;;;;;;;;;5128559;27;20063;-81
2021/07/29 11:50:50;;;;;;;6.70;1.02;;;;;;;;;;5127551;27;20047;-80
2021/07/29 11:53:16;;;;;;;5.70;1.17;;;;;;;;;;5122104;27;20497;-81
2021/07/29 11:55:52;;;;;;;2.53;1.40;;;;;;;;;;5134954;27;20047;-81
2021/07/29 11:58:18;;;;;;;3.97;1.42;;;;;;;;;;5134195;27;20161;-81
2021/07/29 12:00:46;;;;;;;4.10;1.50;;;;;;;;;;5135234;27;20389;-81
2021/07/29 12:03:13;;;;;;;4.97;1.30;;;;;;;;;;5135383;27;20043;-81
2021/07/29 12:05:40;;;;;;;4.43;1.40;;;;;;;;;;5134616;27;20038;-81
2021/07/29 12:08:06;;;;;;;8.98;1.80;;;;;;;;;;5133247;27;20054;-81
2021/07/29 12:10:35;;;;;;;8.30;1.95;;;;;;;;;;5113583;27;20454;-82
2021/07/29 12:13:02;;;;;;;4.82;1.20;;;;;;;;;;5120576;27;20247;-81
2021/07/29 12:15:28;;;;;;;5.53;1.80;;;;;;;;;;5135233;27;20110;-80
2021/07/29 12:18:15;;;;;;;7.18;1.58;;;;;;;;;;5134509;27;20494;-81
2021/07/29 12:20:42;;;;;;;7.45;1.95;;;;;;;;;;5135337;27;20161;-82
2021/07/29 12:23:09;;;;;;;8.25;1.58;;;;;;;;;;5134202;27;20097;-81
2021/07/29 12:25:35;;;;;;;4.93;1.48;;;;;;;;;;5134796;27;20450;-81
2021/07/29 12:28:01;;;;;;;12.00;1.92;;;;;;;;;;5133127;27;20589;-81
2021/07/29 12:30:29;;;;;;;7.40;1.85;;;;;;;;;;5112906;27;20047;-81
2021/07/29 12:33:05;;;;;;;4.15;1.42;;;;;;;;;;5114117;27;20059;-80
2021/07/29 12:35:31;;;;;;;6.70;1.58;;;;;;;;;;5128985;27;20413;-82
2021/07/29 12:37:58;;;;;;;10.30;1.85;;;;;;;;;;5134206;27;20482;-82
2021/07/29 12:40:26;;;;;;;7.28;1.50;;;;;;;;;;5135094;27;20047;-81
2021/07/29 12:42:52;;;;;;;5.50;1.40;;;;;;;;;;5133826;27;20498;-81
2021/07/29 12:45:18;;;;;;;5.93;1.33;;;;;;;;;;5133865;27;20126;-81
2021/07/29 12:48:03;;;;;;;5.72;1.50;;;;;;;;;;5133597;27;20035;-82
2021/07/29 12:50:39;;;;;;;5.68;1.88;;;;;;;;;;5133609;27;20099;-81
2021/07/29 12:53:09;;;;;;;4.38;1.63;;;;;;;;;;5129255;27;20046;-82
2021/07/29 12:55:55;;;;;;;5.50;1.70;;;;;;;;;;5106768;27;20867;-81
2021/07/29 12:58:39;;;;;;;8.40;1.65;;;;;;;;;;5134460;27;20431;-81
2021/07/29 13:01:06;;;;;;;6.18;1.15;;;;;;;;;;5132594;27;20497;-80
2021/07/29 13:03:34;;;;;;;3.58;1.60;;;;;;;;;;5115673;27;20042;-81
2021/07/29 13:06:00;;;;;;;7.80;1.58;;;;;;;;;;5112703;27;20139;-81
2021/07/29 13:08:27;;;;;;;5.93;1.70;;;;;;;;;;5129700;27;20043;-81
2021/07/29 13:10:54;;;;;;;7.45;1.50;;;;;;;;;;5132109;27;20035;-80
2021/07/29 13:13:26;;;;;;;8.93;1.35;;;;;;;;;;5134382;27;20088;-81
2021/07/29 13:15:53;;;;;;;6.80;1.80;;;;;;;;;;5123981;27;20047;-80
2021/07/29 13:18:19;;;;;;;5.85;1.42;;;;;;;;;;5132880;27;20043;-81
2021/07/29 13:20:45;;;;;;;5.13;1.40;;;;;;;;;;5132734;27;20039;-81
2021/07/29 13:23:13;;;;;;;7.13;1.80;;;;;;;;;;5130753;27;20039;-87
2021/07/29 13:25:39;;;;;;;10.73;1.58;;;;;;;;;;5127461;27;20035;-81
2021/07/29 13:28:05;;;;;;;4.75;1.40;;;;;;;;;;5133155;27;20043;-81
2021/07/29 13:30:32;;;;;;;8.27;2.13;;;;;;;;;;5124754;27;20077;-81
2021/07/29 13:32:58;;;;;;;10.27;1.80;;;;;;;;;;5136203;27;20066;-81
2021/07/29 13:35:24;;;;;;;4.70;1.50;;;;;;;;;;5123856;27;20046;-81
2021/07/29 13:37:50;;;;;;;6.00;1.58;;;;;;;;;;5133601;27;20039;-83
2021/07/29 13:40:16;;;;;;;2.70;1.20;;;;;;;;;;5131583;27;20043;-82
2021/07/29 13:42:47;;;;;;;6.10;1.52;;;;;;;;;;5130389;27;20031;-82
2021/07/29 13:45:16;;;;;;;7.32;1.50;;;;;;;;;;5130159;27;20482;-82
2021/07/29 13:47:43;;;;;;;4.30;1.13;;;;;;;;;;5129568;27;20542;-82
2021/07/29 13:50:09;;;;;;;4.72;1.50;;;;;;;;;;5119826;27;20039;-82
2021/07/29 13:52:36;;;;;;;4.00;1.17;;;;;;;;;;5119315;27;20100;-80
2021/07/29 13:55:02;;;;;;;4.28;1.30;;;;;;;;;;5122675;27;20035;-81
2021/07/29 13:57:28;;;;;;;5.60;1.20;;;;;;;;;;5127101;27;20068;-81
2021/07/29 13:59:54;;;;;;;6.47;1.30;;;;;;;;;;5122849;27;20035;-80
2021/07/29 14:02:22;;;;;;;3.50;1.42;;;;;;;;;;5111369;28;20436;-81
2021/07/29 14:04:48;;;;;;;4.80;1.55;;;;;;;;;;5130065;27;20412;-81
2021/07/29 14:07:14;;;;;;;4.25;1.20;;;;;;;;;;5129684;27;20039;-81
2021/07/29 14:09:40;;;;;;;3.63;1.45;;;;;;;;;;5133061;27;20064;-81
2021/07/29 14:12:07;;;;;;;4.15;1.30;;;;;;;;;;5136314;27;20075;-82
2021/07/29 14:14:33;;;;;;;9.10;1.67;;;;;;;;;;5129811;27;20374;-82
2021/07/29 14:17:00;;;;;;;6.57;1.20;;;;;;;;;;5132519;27;20126;-81
2021/07/29 14:19:47;;;;;;;3.85;1.08;;;;;;;;;;5126913;27;20043;-81
2021/07/29 14:24:39;;;;;;;4.32;1.27;;;;;;;;;;5122812;27;20039;-81
2021/07/29 14:27:06;;;;;;;5.50;1.38;;;;;;;;;;5122190;27;20142;-80
2021/07/29 14:29:32;;;;;;;4.60;1.33;;;;;;;;;;5129368;27;20056;-81
2021/07/29 14:31:58;;;;;;;3.95;1.55;;;;;;;;;;5124879;27;20078;-82
2021/07/29 14:34:24;;;;;;;9.45;1.58;;;;;;;;;;5127785;27;20035;-81
2021/07/29 14:36:50;;;;;;;7.60;1.30;;;;;;;;;;5130540;27;20035;-82
2021/07/29 14:39:16;;;;;;;10.15;1.92;;;;;;;;;;5110409;28;20402;-81
2021/07/29 14:41:42;;;;;;;7.43;1.95;;;;;;;;;;5119058;28;20130;-81
2021/07/29 14:44:09;;;;;;;6.22;1.40;;;;;;;;;;5123930;28;20405;-81
2021/07/29 14:49:20;;;;;;;6.72;1.80;;;;;;;;;;5115524;28;20126;-77
2021/07/29 14:51:55;;;;;;;6.60;1.33;;;;;;;;;;5131829;27;20051;-77
2021/07/29 14:54:29;;;;;;;8.35;2.20;;;;;;;;;;5135449;27;20246;-77
2021/07/29 14:56:55;;;;;;;5.05;1.65;;;;;;;;;;5131918;27;20039;-76